This is the latest recevied weather packets stored in our database for station/object DL2GKM-6. If no packets are shown the sender has not sent any weather packets the latest 1 day(s).
| Time | Temp. | Humidity | Pressure | Rain* | Wind** | Luminosity | Snow |
|---|---|---|---|---|---|---|---|
| 1777984280 | 16.11° C | 76% | 1008 hPa | 128.52 mm | 0 m/s | - | - |
| 1777984015 | 16.11° C | 76% | 1008 hPa | 128.52 mm | 0 m/s | - | - |
| 1777983716 | 16.11° C | 76% | 1008 hPa | 128.52 mm | 0 m/s | - | - |
| 1777983441 | 16.11° C | 76% | 1008 hPa | 128.52 mm | 0 m/s | - | - |
| 1777983171 | 16.11° C | 76% | 1007.9 hPa | 128.52 mm | 0.89 m/s, 356° | - | - |
| 1777982914 | 16.11° C | 75% | 1007.9 hPa | 128.52 mm | 2.68 m/s, 270° | - | - |
| 1777982614 | 15.56° C | 75% | 1007.9 hPa | 128.52 mm | 0.89 m/s, 268° | - | - |
| 1777982346 | 16.11° C | 73% | 1007.9 hPa | 128.52 mm | 0 m/s | - | - |
| 1777982103 | 16.11° C | 73% | 1007.9 hPa | 128.52 mm | 1.79 m/s, 291° | - | - |
| 1777981846 | 16.67° C | 71% | 1007.9 hPa | 128.52 mm | 2.68 m/s, 239° | - | - |
| 1777981591 | 16.67° C | 70% | 1008 hPa | 128.52 mm | 4.47 m/s, 304° | - | - |
| 1777981306 | 17.22° C | 68% | 1008 hPa | 128.52 mm | 1.79 m/s, 301° | - | - |
| 1777981021 | 17.78° C | 65% | 1007.9 hPa | 128.52 mm | 5.36 m/s, 52° | - | - |
| 1777980746 | 17.78° C | 64% | 1007.7 hPa | 128.52 mm | 0.45 m/s, 267° | - | - |
| 1777980506 | 17.78° C | 62% | 1007.6 hPa | 128.52 mm | 0 m/s | - | - |
| 1777980232 | 17.78° C | 61% | 1007.5 hPa | 128.52 mm | 0 m/s | - | - |
| 1777979969 | 17.78° C | 59% | 1007.5 hPa | 128.52 mm | 0 m/s | - | - |
| 1777979726 | 17.78° C | 58% | 1007.4 hPa | 128.52 mm | 0 m/s | - | - |
| 1777979477 | 17.78° C | 58% | 1007.4 hPa | 128.52 mm | 0 m/s | - | - |
| 1777979214 | 17.78° C | 58% | 1007.4 hPa | 128.52 mm | 0.45 m/s, 6° | - | - |
| 1777978914 | 17.78° C | 58% | 1007.4 hPa | 128.52 mm | 0.89 m/s, 11° | - | - |
| 1777978644 | 17.78° C | 58% | 1007.4 hPa | 128.52 mm | 0.45 m/s, 295° | - | - |
| 1777978366 | 17.78° C | 58% | 1007.4 hPa | 128.52 mm | 0.89 m/s, 332° | - | - |
| 1777978121 | 17.78° C | 58% | 1007.4 hPa | 128.52 mm | 1.79 m/s, 289° | - | - |
| 1777977878 | 17.78° C | 58% | 1007.4 hPa | 128.52 mm | 2.68 m/s, 339° | - | - |
* Rain latest 24 hours (hover to see other rain measurements)
** Current wind speed in m/s (hover to see current wind gust speed)